createdAt,value
2023-03-26T06:18:28.495Z,3.33
2023-03-26T06:21:42.681Z,4.68
2023-03-26T06:24:53.772Z,1.48
2023-03-26T06:28:24.935Z,2.45
2023-03-26T06:31:59.571Z,4.40
2023-03-26T06:35:34.336Z,1.67
2023-03-26T06:39:26.938Z,0.80
2023-03-26T06:50:39.098Z,3.72
2023-03-26T06:53:48.142Z,5.65
2023-03-26T07:03:53.205Z,6.28
2023-03-26T07:07:04.091Z,2.05
2023-03-26T07:17:03.860Z,6.78
2023-03-26T07:20:29.986Z,4.50
2023-03-26T07:23:57.542Z,6.03
2023-03-26T07:27:16.724Z,6.85
2023-03-26T07:35:07.478Z,6.05
2023-03-26T07:38:54.397Z,5.78
2023-03-26T07:42:32.814Z,7.43
2023-03-26T07:45:55.714Z,3.28
2023-03-26T07:49:09.100Z,4.30
2023-03-26T07:52:48.864Z,4.75
2023-03-26T07:56:17.806Z,4.28
2023-03-26T07:59:32.649Z,4.50
2023-03-26T08:03:03.342Z,4.32
2023-03-26T08:06:41.918Z,1.85
2023-03-26T08:10:06.055Z,6.50
2023-03-26T08:13:35.387Z,2.67
2023-03-26T08:17:00.956Z,4.25
2023-03-26T08:20:28.847Z,4.57
2023-03-26T08:24:13.331Z,3.15
2023-03-26T08:27:38.235Z,2.83
2023-03-26T08:34:31.921Z,3.90
2023-03-26T08:41:41.646Z,2.40
2023-03-26T08:45:22.290Z,3.33
2023-03-26T08:49:20.421Z,6.22
2023-03-26T08:53:02.666Z,1.58
2023-03-26T08:59:57.527Z,3.42
2023-03-26T09:03:29.412Z,8.93
2023-03-26T09:07:10.258Z,5.45
2023-03-26T09:11:00.654Z,2.60
2023-03-26T09:14:56.338Z,6.32
2023-03-26T09:18:55.377Z,3.67
2023-03-26T09:22:56.178Z,4.47
2023-03-26T09:26:39.744Z,6.35
2023-03-26T09:30:20.840Z,5.43
2023-03-26T09:34:18.227Z,4.35
2023-03-26T09:37:56.132Z,4.88
2023-03-26T09:41:29.240Z,4.78
2023-03-26T09:45:42.030Z,5.60
2023-03-26T09:49:17.589Z,5.53
2023-03-26T09:53:10.330Z,2.53
2023-03-26T09:56:31.193Z,3.22
2023-03-26T10:00:05.618Z,4.10
2023-03-26T10:03:44.107Z,3.80
2023-03-26T10:07:06.048Z,4.72
2023-03-26T10:10:37.809Z,4.10
2023-03-26T10:14:07.729Z,3.58
2023-03-26T10:17:39.948Z,4.88
2023-03-26T10:21:13.280Z,5.80
2023-03-26T10:24:58.069Z,7.80
2023-03-26T10:28:25.123Z,2.60
2023-03-26T10:31:58.712Z,7.55
2023-03-26T10:35:29.933Z,4.00
2023-03-26T10:39:05.768Z,5.45
2023-03-26T10:42:44.539Z,2.25
2023-03-26T10:46:35.747Z,3.10
2023-03-26T10:50:33.433Z,3.13
2023-03-26T10:54:12.869Z,5.25
2023-03-26T10:58:02.822Z,4.38
2023-03-26T11:01:26.179Z,2.95
2023-03-26T11:04:46.281Z,1.67
2023-03-26T11:08:18.744Z,3.13
2023-03-26T11:11:38.840Z,3.80
2023-03-26T11:15:38.111Z,3.53
2023-03-26T11:18:55.910Z,1.83
2023-03-26T11:22:10.945Z,2.28
2023-03-26T11:25:37.892Z,5.03
2023-03-26T11:29:34.189Z,2.85
2023-03-26T11:33:04.198Z,3.40
2023-03-26T11:36:28.313Z,2.42
2023-03-26T11:39:46.651Z,3.72
2023-03-26T11:43:11.516Z,3.97
2023-03-26T11:46:33.621Z,4.18
2023-03-26T11:49:45.881Z,2.63
2023-03-26T11:53:11.824Z,3.78
2023-03-26T11:56:33.507Z,4.38
2023-03-26T11:59:56.958Z,2.10
2023-03-26T12:03:23.707Z,2.38
2023-03-26T12:06:41.753Z,2.40
2023-03-26T12:10:18.067Z,6.25
2023-03-26T12:13:41.745Z,4.20
2023-03-26T12:17:03.930Z,3.50
2023-03-26T12:20:44.733Z,4.05
2023-03-26T12:24:09.561Z,3.25
2023-03-26T12:27:38.305Z,3.70
2023-03-26T12:31:02.380Z,5.57
2023-03-26T12:34:22.952Z,6.10
2023-03-26T12:37:55.190Z,1.58
2023-03-26T12:44:42.631Z,4.65
2023-03-26T12:44:59.011Z,4.15
2023-03-26T12:48:18.574Z,2.88
2023-03-26T12:51:47.505Z,2.33
2023-03-26T12:55:12.177Z,2.97
2023-03-26T12:58:34.142Z,4.15
2023-03-26T13:01:55.526Z,4.65
2023-03-26T13:05:31.010Z,3.67
2023-03-26T13:09:03.148Z,2.92
2023-03-26T13:15:54.844Z,4.40
2023-03-26T13:19:39.745Z,2.38
2023-03-26T13:23:26.118Z,2.92
2023-03-26T13:27:04.335Z,2.58
2023-03-26T13:30:23.997Z,3.15
2023-03-26T13:33:58.653Z,4.28
2023-03-26T13:37:14.768Z,6.50
2023-03-26T13:40:50.927Z,4.43
2023-03-26T13:44:34.103Z,2.28
2023-03-26T13:47:53.213Z,3.63
2023-03-26T13:51:15.877Z,2.33
2023-03-26T13:54:34.182Z,4.07
2023-03-26T13:58:06.611Z,3.85
2023-03-26T14:01:17.443Z,4.25
2023-03-26T14:04:32.913Z,5.15
2023-03-26T14:07:44.882Z,2.92
2023-03-26T14:11:19.406Z,4.43
2023-03-26T14:14:54.020Z,4.35
2023-03-26T14:18:27.219Z,2.45
2023-03-26T14:22:08.391Z,3.03
2023-03-26T14:25:56.141Z,3.75
2023-03-26T14:29:41.028Z,1.83
2023-03-26T14:33:38.068Z,2.53
2023-03-26T14:37:12.003Z,4.38
2023-03-26T14:41:01.989Z,5.00
2023-03-26T14:44:58.121Z,2.15
2023-03-26T14:48:49.364Z,4.78
2023-03-26T14:52:19.870Z,2.55
2023-03-26T14:56:07.437Z,2.20
2023-03-26T14:59:50.068Z,3.67
2023-03-26T15:03:41.668Z,4.43
2023-03-26T15:07:37.848Z,5.28
2023-03-26T15:11:17.669Z,3.47
2023-03-26T15:14:48.380Z,3.08
2023-03-26T15:18:34.010Z,5.20
2023-03-26T15:22:33.546Z,3.58
2023-03-26T15:26:13.768Z,5.80
2023-03-26T15:29:59.962Z,3.05
2023-03-26T15:33:42.658Z,3.78
2023-03-26T15:37:23.269Z,3.25
2023-03-26T15:41:21.965Z,3.30
2023-03-26T15:44:54.559Z,3.58
2023-03-26T15:48:10.415Z,2.38
2023-03-26T15:51:28.008Z,2.17
2023-03-26T15:54:39.540Z,6.43
2023-03-26T15:57:48.742Z,2.97
2023-03-26T16:01:02.693Z,7.90
2023-03-26T16:04:19.084Z,3.22
2023-03-26T16:07:43.051Z,3.65
2023-03-26T16:10:52.289Z,2.28
2023-03-26T16:14:13.165Z,4.47
2023-03-26T16:17:20.874Z,3.42
2023-03-26T16:20:31.228Z,3.00
2023-03-26T16:23:47.774Z,4.93
2023-03-26T16:27:10.494Z,2.42
2023-03-26T16:30:31.647Z,5.22
2023-03-26T16:33:40.495Z,4.40
2023-03-26T16:36:45.104Z,3.55
2023-03-26T16:39:48.187Z,8.45
2023-03-26T16:42:55.923Z,6.35
2023-03-26T16:46:06.376Z,5.15
2023-03-26T16:49:21.685Z,6.78
2023-03-26T16:52:36.533Z,6.35
2023-03-26T16:55:44.265Z,4.30
2023-03-26T16:58:55.941Z,4.43
2023-03-26T17:02:07.437Z,4.88
2023-03-26T17:05:19.809Z,10.77
2023-03-26T17:08:36.068Z,6.75
2023-03-26T17:11:55.956Z,4.68
2023-03-26T17:15:25.385Z,7.18
2023-03-26T17:18:45.653Z,4.78
2023-03-26T17:21:56.564Z,4.32
2023-03-26T17:25:05.326Z,6.90
2023-03-26T17:28:27.405Z,8.23
2023-03-26T17:31:41.186Z,6.47
2023-03-26T17:34:55.765Z,4.63
2023-03-26T17:38:00.020Z,5.53
2023-03-26T17:41:02.513Z,9.45
2023-03-26T17:44:41.924Z,11.07
2023-03-26T17:47:49.509Z,5.80
2023-03-26T17:50:56.260Z,6.85
2023-03-26T17:54:03.519Z,9.43
2023-03-26T17:57:11.833Z,6.68
2023-03-26T18:00:20.567Z,7.57
2023-03-26T18:03:31.171Z,10.32
2023-03-26T18:06:51.663Z,12.45
2023-03-26T18:10:22.413Z,8.35
2023-03-26T18:13:56.552Z,8.57
2023-03-26T18:17:01.660Z,11.18
2023-03-26T18:20:09.747Z,8.98
2023-03-26T18:23:21.198Z,13.15
2023-03-26T18:26:34.080Z,8.50
2023-03-26T18:29:38.180Z,13.93
2023-03-26T18:32:52.394Z,10.27
2023-03-26T18:35:56.850Z,10.80
2023-03-26T18:39:00.061Z,10.40
2023-03-26T18:42:04.930Z,13.98
2023-03-26T18:45:13.255Z,10.85
2023-03-26T18:48:20.378Z,9.10
2023-03-26T18:51:23.768Z,11.13
2023-03-26T18:54:33.034Z,12.60
2023-03-26T18:57:37.449Z,12.05
2023-03-26T19:00:40.297Z,15.68
2023-03-26T19:03:45.815Z,17.92
2023-03-26T19:06:53.741Z,12.23
